createdAt,value
2022-08-31T00:05:10.736Z,1.77
2022-08-31T00:07:37.437Z,1.50
2022-08-31T00:10:14.707Z,1.85
2022-08-31T00:12:43.319Z,1.50
2022-08-31T00:15:13.387Z,1.50
2022-08-31T00:17:41.158Z,1.70
2022-08-31T00:20:09.734Z,1.90
2022-08-31T00:22:57.118Z,1.77
2022-08-31T00:25:24.447Z,1.60
2022-08-31T00:27:51.037Z,1.83
2022-08-31T00:30:18.326Z,1.88
2022-08-31T00:32:44.794Z,2.03
2022-08-31T00:35:11.316Z,1.23
2022-08-31T00:37:37.896Z,2.05
2022-08-31T00:40:05.037Z,1.73
2022-08-31T00:42:31.558Z,1.77
2022-08-31T00:44:58.106Z,1.67
2022-08-31T00:47:24.601Z,1.85
2022-08-31T00:49:52.509Z,1.60
2022-08-31T00:52:37.456Z,2.25
2022-08-31T00:55:12.148Z,1.70
2022-08-31T00:57:41.570Z,1.70
2022-08-31T01:00:13.260Z,1.40
2022-08-31T01:02:40.661Z,1.75
2022-08-31T01:05:08.496Z,2.10
2022-08-31T01:07:35.959Z,1.90
2022-08-31T01:10:02.772Z,1.60
2022-08-31T01:12:29.894Z,1.75
2022-08-31T01:14:57.242Z,1.73
2022-08-31T01:17:23.777Z,1.65
2022-08-31T01:20:00.044Z,1.73
2022-08-31T01:22:48.060Z,2.03
2022-08-31T01:25:15.258Z,1.50
2022-08-31T01:27:42.042Z,1.63
2022-08-31T01:30:11.625Z,1.85
2022-08-31T01:32:39.799Z,1.80
2022-08-31T01:35:07.393Z,1.75
2022-08-31T01:37:38.476Z,1.92
2022-08-31T01:40:06.121Z,2.20
2022-08-31T01:42:34.346Z,1.75
2022-08-31T01:45:01.706Z,1.88
2022-08-31T01:47:28.317Z,1.88
2022-08-31T01:49:57.463Z,1.83
2022-08-31T01:52:27.602Z,2.00
2022-08-31T01:54:55.244Z,1.70
2022-08-31T01:57:30.869Z,1.80
2022-08-31T02:00:03.076Z,2.00
2022-08-31T02:02:29.612Z,1.73
2022-08-31T02:04:56.114Z,1.80
2022-08-31T02:07:22.622Z,2.00
2022-08-31T02:09:49.168Z,1.77
2022-08-31T02:12:17.518Z,1.90
2022-08-31T02:14:44.002Z,1.73
2022-08-31T02:17:10.616Z,2.00
2022-08-31T02:19:37.173Z,2.03
2022-08-31T02:22:03.874Z,1.55
2022-08-31T02:24:31.283Z,1.75
2022-08-31T02:26:57.916Z,1.90
2022-08-31T02:29:24.406Z,1.88
2022-08-31T02:31:51.884Z,1.98
2022-08-31T02:34:19.504Z,1.85
2022-08-31T02:36:46.221Z,1.92
2022-08-31T02:39:14.477Z,2.10
2022-08-31T02:41:41.760Z,1.83
2022-08-31T02:44:08.337Z,1.60
2022-08-31T02:46:35.347Z,2.28
2022-08-31T02:49:02.662Z,1.73
2022-08-31T02:51:29.562Z,1.88
2022-08-31T02:53:56.106Z,1.83
2022-08-31T02:56:23.691Z,2.15
2022-08-31T02:58:54.707Z,1.73
2022-08-31T03:01:23.453Z,2.00
2022-08-31T03:03:50.217Z,2.00
2022-08-31T03:06:18.868Z,2.10
2022-08-31T03:08:46.195Z,2.10
2022-08-31T03:11:13.236Z,1.75
2022-08-31T03:13:41.444Z,1.80
2022-08-31T03:16:08.072Z,2.00
2022-08-31T03:18:34.674Z,1.95
2022-08-31T03:21:02.412Z,1.88
2022-08-31T03:23:29.180Z,1.92
2022-08-31T03:25:55.842Z,2.00
2022-08-31T03:28:22.512Z,3.05
2022-08-31T03:30:49.085Z,1.80
2022-08-31T03:33:16.153Z,1.88
2022-08-31T03:35:44.104Z,2.22
2022-08-31T03:38:12.822Z,2.10
2022-08-31T03:40:41.227Z,2.00
2022-08-31T03:43:11.473Z,1.88
2022-08-31T03:45:40.471Z,1.90
2022-08-31T03:48:11.996Z,2.00
2022-08-31T03:50:40.373Z,2.13
2022-08-31T03:53:08.132Z,1.92
2022-08-31T03:55:38.305Z,1.67
2022-08-31T03:58:05.979Z,1.92
2022-08-31T04:00:33.511Z,2.10
2022-08-31T04:03:00.552Z,1.92
2022-08-31T04:05:28.522Z,1.85
2022-08-31T04:07:55.866Z,1.92
2022-08-31T04:10:23.079Z,2.25
2022-08-31T04:12:49.988Z,2.30
2022-08-31T04:15:17.884Z,2.13
2022-08-31T04:17:45.651Z,1.98
2022-08-31T04:20:12.747Z,1.65
2022-08-31T04:22:39.357Z,2.15
2022-08-31T04:25:06.308Z,1.90
2022-08-31T04:27:32.846Z,1.52
2022-08-31T04:29:59.409Z,1.70
2022-08-31T04:32:25.900Z,1.70
2022-08-31T04:34:56.305Z,1.60
2022-08-31T04:37:23.326Z,1.65
2022-08-31T04:39:50.761Z,1.95
2022-08-31T04:42:17.729Z,1.73
2022-08-31T04:44:44.223Z,1.65
2022-08-31T04:47:10.693Z,1.80
2022-08-31T04:49:37.221Z,2.17
2022-08-31T04:52:03.864Z,2.08
2022-08-31T04:54:30.343Z,2.10
2022-08-31T04:56:59.057Z,1.80
2022-08-31T04:59:27.336Z,2.10
2022-08-31T05:01:55.469Z,2.25
2022-08-31T05:04:25.879Z,1.80
2022-08-31T05:06:52.457Z,1.73
2022-08-31T05:09:22.578Z,2.25
2022-08-31T05:11:51.342Z,1.70
2022-08-31T05:14:18.334Z,1.90
2022-08-31T05:16:45.895Z,2.30
2022-08-31T05:19:12.946Z,1.90
2022-08-31T05:21:41.909Z,1.83
2022-08-31T05:24:18.151Z,1.67
2022-08-31T05:26:50.686Z,2.08
2022-08-31T05:29:20.200Z,2.00
2022-08-31T05:31:52.054Z,1.90
2022-08-31T05:34:20.872Z,2.03
2022-08-31T05:36:51.993Z,1.83
2022-08-31T05:39:18.534Z,1.88
2022-08-31T05:41:46.772Z,1.65
2022-08-31T05:44:14.217Z,1.65
2022-08-31T05:46:41.728Z,2.13
2022-08-31T05:49:08.956Z,1.83
2022-08-31T05:51:38.351Z,2.03
2022-08-31T05:54:05.300Z,2.40
2022-08-31T05:56:31.895Z,3.13
2022-08-31T05:58:58.494Z,1.80
2022-08-31T06:01:30.353Z,2.22
2022-08-31T06:03:58.169Z,1.85
2022-08-31T06:06:24.866Z,2.00
2022-08-31T06:08:51.917Z,2.00
2022-08-31T06:11:20.831Z,2.05
2022-08-31T06:13:50.379Z,1.95
2022-08-31T06:16:17.852Z,1.95
2022-08-31T06:18:49.830Z,2.00
2022-08-31T06:21:32.174Z,1.90
2022-08-31T06:24:00.146Z,2.40
2022-08-31T06:26:29.006Z,3.03
2022-08-31T06:28:59.008Z,2.10
2022-08-31T06:31:29.553Z,1.90
2022-08-31T06:33:57.340Z,2.30
2022-08-31T06:36:26.511Z,1.98
2022-08-31T06:38:56.079Z,3.97
2022-08-31T06:41:27.194Z,2.65
2022-08-31T06:43:53.948Z,1.50
2022-08-31T06:46:22.883Z,1.40
2022-08-31T06:48:50.738Z,2.00
2022-08-31T06:51:17.836Z,1.70
2022-08-31T06:53:45.001Z,1.27
2022-08-31T06:56:20.999Z,1.98
2022-08-31T06:58:54.081Z,1.90
2022-08-31T07:01:34.759Z,1.80
2022-08-31T07:04:07.506Z,1.70
2022-08-31T07:06:40.870Z,1.83
2022-08-31T07:09:09.907Z,2.03
2022-08-31T07:11:48.980Z,2.08
2022-08-31T07:14:18.583Z,1.73
2022-08-31T07:16:46.099Z,2.00
2022-08-31T07:19:13.564Z,1.85
2022-08-31T07:21:45.732Z,2.00
2022-08-31T07:24:15.055Z,2.03
2022-08-31T07:26:50.111Z,1.95
2022-08-31T07:29:18.804Z,1.70
2022-08-31T07:31:48.399Z,1.83
2022-08-31T07:34:17.443Z,1.95
2022-08-31T07:37:02.814Z,2.05
2022-08-31T07:39:48.930Z,1.98
2022-08-31T07:42:20.604Z,2.20
2022-08-31T07:44:53.445Z,2.10
2022-08-31T07:47:21.315Z,2.10
2022-08-31T07:49:52.515Z,1.80
2022-08-31T07:52:21.920Z,2.15
2022-08-31T07:54:50.098Z,2.10
2022-08-31T07:57:18.858Z,2.25
2022-08-31T07:59:47.113Z,1.67
2022-08-31T08:02:17.714Z,2.17
2022-08-31T08:04:45.053Z,1.85
2022-08-31T08:07:12.385Z,2.20
2022-08-31T08:09:38.949Z,2.00
2022-08-31T08:12:08.783Z,1.45
2022-08-31T08:14:38.392Z,2.17
2022-08-31T08:17:07.396Z,2.40
2022-08-31T08:19:34.041Z,2.67
2022-08-31T08:22:02.874Z,2.42
2022-08-31T08:24:31.591Z,2.67
2022-08-31T08:26:58.880Z,3.83
2022-08-31T08:29:27.223Z,2.30
2022-08-31T08:31:54.514Z,2.05
2022-08-31T08:34:29.630Z,2.63
2022-08-31T08:37:00.202Z,2.63
2022-08-31T08:39:27.254Z,2.85
2022-08-31T08:41:57.760Z,2.80
2022-08-31T08:44:28.453Z,4.05
2022-08-31T08:46:58.802Z,2.80
2022-08-31T08:49:28.748Z,3.10
2022-08-31T08:52:03.232Z,2.60
2022-08-31T08:54:33.161Z,2.70
2022-08-31T08:57:03.465Z,2.88
2022-08-31T08:59:29.946Z,2.35
2022-08-31T09:02:02.037Z,3.05
2022-08-31T09:04:59.518Z,2.78
2022-08-31T09:07:42.910Z,2.67
2022-08-31T09:10:23.027Z,2.70
2022-08-31T09:13:01.607Z,2.58
2022-08-31T09:15:40.052Z,3.30
2022-08-31T09:18:18.759Z,2.70
2022-08-31T09:21:01.344Z,3.10
2022-08-31T09:23:29.947Z,2.95
2022-08-31T09:25:58.469Z,3.05
2022-08-31T09:28:48.414Z,2.95
2022-08-31T09:31:32.974Z,3.42
2022-08-31T09:33:59.683Z,2.90
2022-08-31T09:36:33.666Z,2.92
2022-08-31T09:39:22.736Z,3.00
2022-08-31T09:41:50.087Z,3.40
2022-08-31T09:44:22.995Z,3.00
2022-08-31T09:46:56.558Z,3.17
2022-08-31T09:49:27.508Z,3.72
2022-08-31T09:52:18.939Z,2.50
2022-08-31T09:55:13.993Z,2.92
2022-08-31T09:58:07.847Z,3.13
2022-08-31T10:00:44.148Z,3.83
2022-08-31T10:03:13.605Z,3.42
2022-08-31T10:05:43.528Z,3.03
2022-08-31T10:08:31.662Z,3.40
2022-08-31T10:11:06.420Z,3.10
2022-08-31T10:13:44.173Z,3.42
2022-08-31T10:16:34.874Z,3.65
2022-08-31T10:19:13.325Z,2.90
2022-08-31T10:21:48.957Z,3.25
2022-08-31T10:24:44.603Z,4.10
2022-08-31T10:27:14.816Z,3.40
2022-08-31T10:29:46.059Z,3.15
2022-08-31T10:32:34.464Z,3.53
2022-08-31T10:35:10.094Z,4.07
2022-08-31T10:37:50.427Z,3.80
2022-08-31T10:40:23.481Z,3.13
2022-08-31T10:43:01.518Z,3.38
2022-08-31T10:45:31.502Z,3.63
2022-08-31T10:47:59.847Z,3.53
2022-08-31T10:50:45.200Z,3.63
2022-08-31T10:53:22.460Z,3.20
2022-08-31T10:55:59.960Z,3.50
2022-08-31T10:58:49.354Z,3.60
2022-08-31T11:01:27.943Z,3.05
2022-08-31T11:04:12.715Z,3.78
2022-08-31T11:06:50.804Z,3.97
2022-08-31T11:09:24.622Z,2.63
2022-08-31T11:11:58.038Z,3.55
2022-08-31T11:14:36.646Z,4.07
2022-08-31T11:17:13.686Z,3.90
2022-08-31T11:20:00.629Z,3.63
2022-08-31T11:22:37.369Z,3.72
2022-08-31T11:25:24.901Z,4.57
2022-08-31T11:28:22.423Z,4.18
2022-08-31T11:30:50.890Z,3.58
2022-08-31T11:33:28.235Z,3.55
2022-08-31T11:36:10.132Z,3.55
2022-08-31T11:38:54.600Z,3.25
2022-08-31T11:41:46.538Z,3.90
2022-08-31T11:44:29.683Z,4.43
2022-08-31T11:47:09.560Z,3.13
2022-08-31T11:49:51.678Z,3.88
2022-08-31T11:52:22.049Z,3.20
2022-08-31T11:54:50.275Z,3.13
2022-08-31T11:57:25.378Z,3.05
2022-08-31T11:59:56.005Z,3.17
2022-08-31T12:02:23.101Z,2.80
2022-08-31T12:04:52.205Z,2.90
2022-08-31T12:07:41.157Z,3.40
2022-08-31T12:10:10.507Z,2.97
2022-08-31T12:12:42.415Z,3.22
2022-08-31T12:15:13.571Z,3.10
2022-08-31T12:18:14.018Z,3.03
2022-08-31T12:21:08.170Z,2.67
2022-08-31T12:23:38.754Z,3.13
2022-08-31T12:26:25.573Z,3.03
2022-08-31T12:29:21.374Z,2.60
2022-08-31T12:32:26.909Z,3.03
2022-08-31T12:34:56.311Z,2.38
2022-08-31T12:37:24.280Z,2.78
2022-08-31T12:40:17.449Z,2.67
2022-08-31T12:43:02.479Z,3.00
2022-08-31T12:45:54.675Z,2.90
2022-08-31T12:48:39.285Z,2.95
2022-08-31T12:51:08.965Z,2.63
2022-08-31T12:53:51.954Z,2.17
2022-08-31T12:56:39.948Z,2.70
2022-08-31T12:59:23.041Z,2.55
2022-08-31T13:01:51.357Z,3.20
2022-08-31T13:04:20.071Z,2.40
2022-08-31T13:06:48.321Z,2.60
2022-08-31T13:09:28.614Z,2.72
2022-08-31T13:11:58.801Z,2.75
2022-08-31T13:14:38.310Z,2.15
2022-08-31T13:17:11.752Z,2.33
2022-08-31T13:19:50.377Z,2.25
2022-08-31T13:22:25.121Z,1.50
2022-08-31T13:24:54.141Z,2.30
2022-08-31T13:27:24.644Z,2.20
2022-08-31T13:29:53.449Z,2.03
2022-08-31T13:32:33.628Z,2.25
2022-08-31T13:35:04.123Z,2.55
2022-08-31T13:37:39.454Z,2.10
2022-08-31T13:40:10.699Z,2.08
2022-08-31T13:42:43.502Z,4.40
2022-08-31T13:45:25.082Z,2.05
2022-08-31T13:48:03.696Z,3.05
2022-08-31T13:50:56.053Z,2.10
2022-08-31T13:53:41.251Z,2.22
2022-08-31T13:56:41.775Z,2.08
2022-08-31T13:59:23.170Z,2.00
2022-08-31T14:01:55.812Z,2.30
2022-08-31T14:04:49.547Z,2.50
2022-08-31T14:07:23.811Z,2.33
2022-08-31T14:09:50.649Z,1.70
2022-08-31T14:12:34.928Z,2.25
2022-08-31T14:15:10.304Z,1.85
2022-08-31T14:17:43.153Z,2.55
2022-08-31T14:20:36.896Z,1.98
2022-08-31T14:23:27.494Z,1.95
2022-08-31T14:26:01.523Z,2.33
2022-08-31T14:28:42.059Z,2.30
2022-08-31T14:31:29.727Z,2.08
2022-08-31T14:34:11.408Z,2.10
2022-08-31T14:36:50.271Z,2.10
2022-08-31T14:39:16.844Z,1.80
2022-08-31T14:41:45.059Z,1.95
2022-08-31T14:44:13.505Z,1.92
2022-08-31T14:46:42.791Z,2.08
2022-08-31T14:49:09.592Z,1.92
2022-08-31T14:51:39.876Z,2.00
2022-08-31T14:54:08.932Z,2.20
2022-08-31T14:56:39.806Z,1.70
2022-08-31T14:59:12.493Z,2.05
2022-08-31T15:01:40.223Z,1.67
2022-08-31T15:04:06.828Z,1.83
2022-08-31T15:06:33.968Z,2.10
2022-08-31T15:09:04.967Z,2.20
2022-08-31T15:11:37.004Z,2.03
2022-08-31T15:14:05.161Z,1.90
2022-08-31T15:16:32.131Z,2.03
2022-08-31T15:18:59.598Z,1.70
2022-08-31T15:21:26.535Z,1.92
2022-08-31T15:23:53.032Z,2.00
2022-08-31T15:26:21.567Z,2.00
2022-08-31T15:28:52.413Z,1.80
2022-08-31T15:31:23.895Z,1.80
2022-08-31T15:33:53.833Z,2.60
2022-08-31T15:36:21.989Z,1.48
2022-08-31T15:38:49.897Z,1.85
2022-08-31T15:41:17.757Z,2.13
2022-08-31T15:43:44.576Z,1.63
2022-08-31T15:46:14.154Z,2.15
2022-08-31T15:48:45.764Z,1.50
2022-08-31T15:51:15.276Z,2.08
2022-08-31T15:53:42.658Z,2.00
2022-08-31T15:56:09.387Z,1.80
2022-08-31T15:58:38.982Z,1.70
2022-08-31T16:01:12.547Z,1.90
2022-08-31T16:03:41.875Z,1.80
2022-08-31T16:06:11.025Z,2.20
2022-08-31T16:08:41.268Z,1.90
2022-08-31T16:11:11.792Z,1.80
2022-08-31T16:13:47.779Z,2.40
2022-08-31T16:16:18.672Z,2.00
2022-08-31T16:18:47.527Z,2.20
2022-08-31T16:21:15.206Z,2.33
2022-08-31T16:23:41.856Z,1.83
2022-08-31T16:26:11.343Z,1.83
2022-08-31T16:28:39.131Z,1.75
2022-08-31T16:31:10.347Z,2.05
2022-08-31T16:33:36.896Z,1.60
2022-08-31T16:36:03.479Z,2.08
2022-08-31T16:38:30.873Z,1.83
2022-08-31T16:41:04.832Z,1.50
2022-08-31T16:43:31.388Z,2.00
2022-08-31T16:45:59.762Z,1.73
2022-08-31T16:48:45.102Z,1.60
2022-08-31T16:51:15.293Z,1.90
2022-08-31T16:53:47.183Z,1.58
2022-08-31T16:56:15.184Z,1.55
2022-08-31T16:58:52.895Z,1.73
2022-08-31T17:01:24.382Z,1.52
2022-08-31T17:03:57.282Z,1.77
2022-08-31T17:06:31.661Z,1.98
2022-08-31T17:09:01.752Z,1.80
2022-08-31T17:11:32.028Z,1.80
2022-08-31T17:14:00.908Z,1.45
2022-08-31T17:16:34.757Z,1.65
2022-08-31T17:19:04.334Z,1.45
2022-08-31T17:21:31.929Z,1.65
2022-08-31T17:24:02.088Z,1.80
2022-08-31T17:26:33.857Z,1.30
2022-08-31T17:29:06.239Z,1.52
2022-08-31T17:31:41.971Z,1.80
2022-08-31T17:34:15.365Z,1.70
2022-08-31T17:36:45.897Z,1.63
2022-08-31T17:39:14.429Z,1.50
2022-08-31T17:41:44.209Z,1.67
2022-08-31T17:44:16.325Z,1.55
2022-08-31T17:46:50.031Z,2.05
2022-08-31T17:49:18.812Z,1.65
2022-08-31T17:51:48.333Z,1.38
2022-08-31T17:54:18.996Z,1.73
2022-08-31T17:56:56.744Z,1.50
2022-08-31T17:59:28.286Z,1.50
2022-08-31T18:01:57.328Z,1.77
2022-08-31T18:04:25.553Z,1.60
2022-08-31T18:06:55.019Z,1.92
2022-08-31T18:09:25.316Z,1.38
2022-08-31T18:11:52.945Z,1.80
2022-08-31T18:14:23.400Z,1.60
2022-08-31T18:16:51.953Z,1.60
2022-08-31T18:19:27.310Z,1.60
2022-08-31T18:21:56.096Z,1.80
2022-08-31T18:24:23.199Z,1.50
2022-08-31T18:26:51.781Z,1.65
2022-08-31T18:29:23.847Z,1.77
2022-08-31T18:31:52.859Z,1.38
2022-08-31T18:34:24.649Z,1.58
2022-08-31T18:36:55.302Z,1.42
2022-08-31T18:39:50.182Z,1.20
2022-08-31T18:42:32.253Z,1.60
2022-08-31T18:45:18.036Z,1.40
2022-08-31T18:50:44.385Z,1.70
2022-08-31T18:53:15.398Z,1.75
2022-08-31T18:55:43.720Z,1.73
2022-08-31T18:58:10.409Z,1.30
2022-08-31T19:00:37.146Z,1.98
2022-08-31T19:03:03.886Z,1.70
2022-08-31T19:05:31.597Z,1.52
2022-08-31T19:08:00.162Z,1.30
2022-08-31T19:10:27.153Z,1.50
2022-08-31T19:12:56.846Z,1.70
2022-08-31T19:15:25.646Z,1.52
2022-08-31T19:18:02.680Z,1.38
2022-08-31T19:20:30.064Z,1.30
2022-08-31T19:22:56.771Z,1.27
2022-08-31T19:25:24.407Z,1.67
2022-08-31T19:27:51.873Z,1.35
2022-08-31T19:30:23.286Z,1.30
2022-08-31T19:32:53.524Z,1.55
2022-08-31T19:35:20.214Z,1.50
2022-08-31T19:37:47.300Z,1.35
2022-08-31T19:40:17.794Z,1.63
2022-08-31T19:43:41.837Z,1.73
2022-08-31T19:45:42.845Z,1.33
2022-08-31T19:48:10.087Z,1.50
2022-08-31T19:50:41.518Z,1.52
2022-08-31T19:53:12.461Z,1.70
2022-08-31T19:55:50.093Z,1.13
2022-08-31T19:58:18.744Z,1.30
2022-08-31T20:00:45.877Z,1.35
2022-08-31T20:03:15.639Z,1.50
2022-08-31T20:05:43.488Z,1.67
2022-08-31T20:08:12.191Z,1.00
2022-08-31T20:10:45.989Z,1.30
2022-08-31T20:13:13.127Z,1.10
2022-08-31T20:15:44.644Z,1.45
2022-08-31T20:18:12.510Z,1.33
2022-08-31T20:20:48.348Z,1.15
2022-08-31T20:23:17.262Z,1.33
2022-08-31T20:25:51.615Z,1.50
2022-08-31T20:28:23.109Z,1.53
2022-08-31T20:30:50.762Z,1.30
2022-08-31T20:33:17.400Z,0.63
2022-08-31T20:35:47.196Z,1.17
2022-08-31T20:38:18.211Z,1.77
2022-08-31T20:40:47.275Z,1.45
2022-08-31T20:43:14.747Z,1.17
2022-08-31T20:45:41.922Z,1.40
2022-08-31T20:48:27.979Z,1.42
2022-08-31T20:50:55.940Z,1.88
2022-08-31T20:53:25.048Z,1.35
2022-08-31T20:56:10.984Z,1.10
2022-08-31T20:58:45.730Z,1.02
2022-08-31T21:01:14.065Z,1.35
2022-08-31T21:03:40.965Z,1.10
2022-08-31T21:06:11.486Z,1.23
2022-08-31T21:08:40.854Z,1.30
2022-08-31T21:11:15.438Z,1.33
2022-08-31T21:13:42.871Z,1.27
2022-08-31T21:16:10.262Z,1.58
2022-08-31T21:18:37.038Z,1.10
2022-08-31T21:21:06.562Z,1.20
2022-08-31T21:23:33.107Z,1.50
2022-08-31T21:25:59.719Z,1.10
2022-08-31T21:28:29.131Z,1.40
2022-08-31T21:31:15.727Z,1.20
2022-08-31T21:33:46.246Z,1.02
2022-08-31T21:36:15.195Z,1.20
2022-08-31T21:38:42.901Z,1.40
2022-08-31T21:41:10.731Z,1.40
2022-08-31T21:43:37.468Z,1.65
2022-08-31T21:46:07.703Z,1.50
2022-08-31T21:48:35.960Z,1.27
2022-08-31T21:51:15.735Z,1.55
2022-08-31T21:53:45.888Z,1.75
2022-08-31T21:56:12.724Z,1.40
2022-08-31T21:58:39.967Z,1.52
2022-08-31T22:01:09.625Z,1.25
2022-08-31T22:03:36.670Z,1.70
2022-08-31T22:06:07.775Z,1.65
2022-08-31T22:08:36.268Z,1.40
2022-08-31T22:11:08.149Z,1.70
2022-08-31T22:13:37.108Z,1.75
2022-08-31T22:16:13.227Z,1.45
2022-08-31T22:19:00.910Z,1.45
2022-08-31T22:23:59.948Z,1.75
2022-08-31T22:26:28.637Z,1.77
2022-08-31T22:28:55.788Z,2.03
2022-08-31T22:31:25.133Z,1.50
2022-08-31T22:33:51.949Z,1.38
2022-08-31T22:36:30.915Z,1.80
2022-08-31T22:39:04.153Z,1.77
2022-08-31T22:41:32.649Z,1.67
2022-08-31T22:43:59.770Z,2.78
2022-08-31T22:46:26.787Z,1.52
2022-08-31T22:48:53.287Z,1.95
2022-08-31T22:51:19.776Z,1.65
2022-08-31T22:53:47.115Z,1.63
2022-08-31T22:56:26.078Z,1.42
2022-08-31T22:58:57.931Z,1.25
2022-08-31T23:01:33.721Z,1.50
2022-08-31T23:04:06.330Z,1.30
2022-08-31T23:06:35.633Z,1.70
2022-08-31T23:09:05.152Z,1.90
2022-08-31T23:11:31.620Z,1.60
2022-08-31T23:13:58.836Z,1.85
2022-08-31T23:16:26.834Z,1.88
2022-08-31T23:19:02.657Z,1.80
2022-08-31T23:21:33.904Z,1.20
2022-08-31T23:24:01.647Z,1.75
2022-08-31T23:26:30.342Z,1.30
2022-08-31T23:28:59.012Z,1.40
2022-08-31T23:31:27.541Z,1.60
2022-08-31T23:33:54.731Z,1.27
2022-08-31T23:36:26.186Z,1.52
2022-08-31T23:38:57.773Z,1.40
2022-08-31T23:41:29.497Z,1.60
2022-08-31T23:43:57.440Z,1.20
2022-08-31T23:46:25.205Z,1.50
2022-08-31T23:48:53.391Z,1.90
2022-08-31T23:51:22.366Z,1.95
2022-08-31T23:53:53.967Z,1.80
2022-08-31T23:56:30.252Z,1.60
2022-08-31T23:58:57.648Z,1.70
